sensor_id;sensor_type;location;lat;lon;timestamp;temperature;humidity
16315;DHT22;8266;52.150;4.768;2022-10-16T00:01:07;17.20;99.90
16315;DHT22;8266;52.150;4.768;2022-10-16T00:03:34;17.20;99.90
16315;DHT22;8266;52.150;4.768;2022-10-16T00:06:02;17.20;99.90
16315;DHT22;8266;52.150;4.768;2022-10-16T00:08:29;17.20;99.90
16315;DHT22;8266;52.150;4.768;2022-10-16T00:11:01;17.20;99.90
16315;DHT22;8266;52.150;4.768;2022-10-16T00:13:28;17.20;99.90
16315;DHT22;8266;52.150;4.768;2022-10-16T00:15:58;17.20;99.90
16315;DHT22;8266;52.150;4.768;2022-10-16T00:18:26;17.20;99.90
16315;DHT22;8266;52.150;4.768;2022-10-16T00:20:53;17.20;99.90
16315;DHT22;8266;52.150;4.768;2022-10-16T00:23:21;17.20;99.90
16315;DHT22;8266;52.150;4.768;2022-10-16T00:25:55;17.20;99.90
16315;DHT22;8266;52.150;4.768;2022-10-16T00:28:22;17.20;99.90
16315;DHT22;8266;52.150;4.768;2022-10-16T00:30:49;17.20;99.90
16315;DHT22;8266;52.150;4.768;2022-10-16T00:33:18;17.20;99.90
16315;DHT22;8266;52.150;4.768;2022-10-16T00:35:45;17.10;99.90
16315;DHT22;8266;52.150;4.768;2022-10-16T00:38:12;17.20;99.90
16315;DHT22;8266;52.150;4.768;2022-10-16T00:40:39;17.20;99.90
16315;DHT22;8266;52.150;4.768;2022-10-16T00:43:12;17.20;99.90
16315;DHT22;8266;52.150;4.768;2022-10-16T00:45:40;17.20;99.90
16315;DHT22;8266;52.150;4.768;2022-10-16T00:48:11;17.20;99.90
16315;DHT22;8266;52.150;4.768;2022-10-16T00:50:41;17.10;99.90
16315;DHT22;8266;52.150;4.768;2022-10-16T00:53:10;17.10;99.90
16315;DHT22;8266;52.150;4.768;2022-10-16T00:55:38;17.20;99.90
16315;DHT22;8266;52.150;4.768;2022-10-16T00:58:05;17.10;99.90
16315;DHT22;8266;52.150;4.768;2022-10-16T01:00:32;17.10;99.90
16315;DHT22;8266;52.150;4.768;2022-10-16T01:03:01;17.10;99.90
16315;DHT22;8266;52.150;4.768;2022-10-16T01:05:33;17.10;99.90
16315;DHT22;8266;52.150;4.768;2022-10-16T01:08:09;17.10;99.90
16315;DHT22;8266;52.150;4.768;2022-10-16T01:10:43;17.10;99.90
16315;DHT22;8266;52.150;4.768;2022-10-16T01:13:15;17.10;99.90
16315;DHT22;8266;52.150;4.768;2022-10-16T01:15:48;17.10;99.90
16315;DHT22;8266;52.150;4.768;2022-10-16T01:18:21;17.10;99.90
16315;DHT22;8266;52.150;4.768;2022-10-16T01:20:53;17.10;99.90
16315;DHT22;8266;52.150;4.768;2022-10-16T01:23:37;17.10;99.90
16315;DHT22;8266;52.150;4.768;2022-10-16T01:29:06;17.10;99.90
16315;DHT22;8266;52.150;4.768;2022-10-16T01:31:36;17.10;99.90
16315;DHT22;8266;52.150;4.768;2022-10-16T01:34:07;17.10;99.90
16315;DHT22;8266;52.150;4.768;2022-10-16T01:36:39;17.10;99.90
16315;DHT22;8266;52.150;4.768;2022-10-16T01:39:10;17.10;99.90
16315;DHT22;8266;52.150;4.768;2022-10-16T01:41:40;17.10;99.90
16315;DHT22;8266;52.150;4.768;2022-10-16T01:44:13;17.00;99.90
16315;DHT22;8266;52.150;4.768;2022-10-16T01:46:43;17.00;99.90
16315;DHT22;8266;52.150;4.768;2022-10-16T01:49:12;17.00;99.90
16315;DHT22;8266;52.150;4.768;2022-10-16T01:51:39;17.00;99.90
16315;DHT22;8266;52.150;4.768;2022-10-16T01:54:08;17.00;99.90
16315;DHT22;8266;52.150;4.768;2022-10-16T01:56:36;16.90;99.90
16315;DHT22;8266;52.150;4.768;2022-10-16T01:59:06;16.90;99.90
16315;DHT22;8266;52.150;4.768;2022-10-16T02:01:37;16.90;99.90
16315;DHT22;8266;52.150;4.768;2022-10-16T02:04:11;16.80;99.90
16315;DHT22;8266;52.150;4.768;2022-10-16T02:06:39;16.80;99.90
16315;DHT22;8266;52.150;4.768;2022-10-16T02:09:06;16.80;99.90
16315;DHT22;8266;52.150;4.768;2022-10-16T02:11:33;16.70;99.90
16315;DHT22;8266;52.150;4.768;2022-10-16T02:14:03;16.70;99.90
16315;DHT22;8266;52.150;4.768;2022-10-16T02:16:37;16.70;99.90
16315;DHT22;8266;52.150;4.768;2022-10-16T02:19:05;16.70;99.90
16315;DHT22;8266;52.150;4.768;2022-10-16T02:21:38;16.70;99.90
16315;DHT22;8266;52.150;4.768;2022-10-16T02:24:11;16.60;99.90
16315;DHT22;8266;52.150;4.768;2022-10-16T02:26:43;16.60;99.90
16315;DHT22;8266;52.150;4.768;2022-10-16T02:29:17;16.60;99.90
16315;DHT22;8266;52.150;4.768;2022-10-16T02:31:49;16.60;99.90
16315;DHT22;8266;52.150;4.768;2022-10-16T02:34:18;16.60;99.90
16315;DHT22;8266;52.150;4.768;2022-10-16T02:36:48;16.60;99.90
16315;DHT22;8266;52.150;4.768;2022-10-16T02:39:17;16.60;99.90
16315;DHT22;8266;52.150;4.768;2022-10-16T02:41:45;16.60;99.90
16315;DHT22;8266;52.150;4.768;2022-10-16T02:44:11;16.60;99.90
16315;DHT22;8266;52.150;4.768;2022-10-16T02:46:38;16.60;99.90
16315;DHT22;8266;52.150;4.768;2022-10-16T02:49:07;16.60;99.90
16315;DHT22;8266;52.150;4.768;2022-10-16T02:51:34;16.60;99.90
16315;DHT22;8266;52.150;4.768;2022-10-16T02:54:01;16.60;99.90
16315;DHT22;8266;52.150;4.768;2022-10-16T02:56:28;16.60;99.90
16315;DHT22;8266;52.150;4.768;2022-10-16T02:58:56;16.60;99.90
16315;DHT22;8266;52.150;4.768;2022-10-16T03:01:23;16.60;99.90
16315;DHT22;8266;52.150;4.768;2022-10-16T03:03:50;16.60;99.90
16315;DHT22;8266;52.150;4.768;2022-10-16T03:06:18;16.60;99.90
16315;DHT22;8266;52.150;4.768;2022-10-16T03:08:45;16.50;99.90
16315;DHT22;8266;52.150;4.768;2022-10-16T03:11:12;16.60;99.90
16315;DHT22;8266;52.150;4.768;2022-10-16T03:13:39;16.50;99.90
16315;DHT22;8266;52.150;4.768;2022-10-16T03:16:06;16.50;99.90
16315;DHT22;8266;52.150;4.768;2022-10-16T03:18:33;16.50;99.90
16315;DHT22;8266;52.150;4.768;2022-10-16T03:21:00;16.50;99.90
16315;DHT22;8266;52.150;4.768;2022-10-16T03:23:29;16.50;99.90
16315;DHT22;8266;52.150;4.768;2022-10-16T03:25:56;16.50;99.90
16315;DHT22;8266;52.150;4.768;2022-10-16T03:28:23;16.40;99.90
16315;DHT22;8266;52.150;4.768;2022-10-16T03:30:50;16.40;99.90
16315;DHT22;8266;52.150;4.768;2022-10-16T03:33:17;16.40;99.90
16315;DHT22;8266;52.150;4.768;2022-10-16T03:35:51;16.40;99.90
16315;DHT22;8266;52.150;4.768;2022-10-16T03:38:18;16.40;99.90
16315;DHT22;8266;52.150;4.768;2022-10-16T03:40:47;16.30;99.90
16315;DHT22;8266;52.150;4.768;2022-10-16T03:43:13;16.30;99.90
16315;DHT22;8266;52.150;4.768;2022-10-16T03:45:40;16.30;99.90
16315;DHT22;8266;52.150;4.768;2022-10-16T03:48:07;16.30;99.90
16315;DHT22;8266;52.150;4.768;2022-10-16T03:50:34;16.30;99.90
16315;DHT22;8266;52.150;4.768;2022-10-16T03:53:01;16.30;99.90
16315;DHT22;8266;52.150;4.768;2022-10-16T03:55:28;16.30;99.90
16315;DHT22;8266;52.150;4.768;2022-10-16T03:57:57;16.30;99.90
16315;DHT22;8266;52.150;4.768;2022-10-16T04:00:24;16.30;99.90
16315;DHT22;8266;52.150;4.768;2022-10-16T04:02:50;16.30;99.90
16315;DHT22;8266;52.150;4.768;2022-10-16T04:05:17;16.30;99.90
16315;DHT22;8266;52.150;4.768;2022-10-16T04:07:44;16.30;99.90
16315;DHT22;8266;52.150;4.768;2022-10-16T04:10:11;16.30;99.90
16315;DHT22;8266;52.150;4.768;2022-10-16T04:12:38;16.30;99.90
16315;DHT22;8266;52.150;4.768;2022-10-16T04:15:07;16.30;99.90
16315;DHT22;8266;52.150;4.768;2022-10-16T04:17:35;16.30;99.90
16315;DHT22;8266;52.150;4.768;2022-10-16T04:20:03;16.40;99.90
16315;DHT22;8266;52.150;4.768;2022-10-16T04:22:30;16.30;99.90
16315;DHT22;8266;52.150;4.768;2022-10-16T04:24:57;16.30;99.90
16315;DHT22;8266;52.150;4.768;2022-10-16T04:27:24;16.30;99.90
16315;DHT22;8266;52.150;4.768;2022-10-16T04:29:51;16.30;99.90
16315;DHT22;8266;52.150;4.768;2022-10-16T04:32:19;16.30;99.90
16315;DHT22;8266;52.150;4.768;2022-10-16T04:34:46;16.30;99.90
16315;DHT22;8266;52.150;4.768;2022-10-16T04:37:13;16.30;99.90
16315;DHT22;8266;52.150;4.768;2022-10-16T04:39:40;16.30;99.90
16315;DHT22;8266;52.150;4.768;2022-10-16T04:42:07;16.30;99.90
16315;DHT22;8266;52.150;4.768;2022-10-16T04:44:34;16.30;99.90
16315;DHT22;8266;52.150;4.768;2022-10-16T04:47:01;16.30;99.90
16315;DHT22;8266;52.150;4.768;2022-10-16T04:49:29;16.30;99.90
16315;DHT22;8266;52.150;4.768;2022-10-16T04:51:56;16.30;99.90
16315;DHT22;8266;52.150;4.768;2022-10-16T04:54:23;16.30;99.90
16315;DHT22;8266;52.150;4.768;2022-10-16T04:56:50;16.30;99.90
16315;DHT22;8266;52.150;4.768;2022-10-16T04:59:18;16.30;99.90
16315;DHT22;8266;52.150;4.768;2022-10-16T05:01:45;16.30;99.90
16315;DHT22;8266;52.150;4.768;2022-10-16T05:04:12;16.30;99.90
16315;DHT22;8266;52.150;4.768;2022-10-16T05:06:42;16.30;99.90
16315;DHT22;8266;52.150;4.768;2022-10-16T05:09:09;16.30;99.90
16315;DHT22;8266;52.150;4.768;2022-10-16T05:11:37;16.30;99.90
16315;DHT22;8266;52.150;4.768;2022-10-16T05:14:04;16.30;99.90
16315;DHT22;8266;52.150;4.768;2022-10-16T05:16:31;16.30;99.90
16315;DHT22;8266;52.150;4.768;2022-10-16T05:18:58;16.30;99.90
16315;DHT22;8266;52.150;4.768;2022-10-16T05:21:25;16.30;99.90
16315;DHT22;8266;52.150;4.768;2022-10-16T05:23:54;16.30;99.90
16315;DHT22;8266;52.150;4.768;2022-10-16T05:26:21;16.20;99.90
16315;DHT22;8266;52.150;4.768;2022-10-16T05:28:49;16.30;99.90
16315;DHT22;8266;52.150;4.768;2022-10-16T05:31:16;16.30;99.90
16315;DHT22;8266;52.150;4.768;2022-10-16T05:33:43;16.30;99.90
16315;DHT22;8266;52.150;4.768;2022-10-16T05:36:10;16.30;99.90
16315;DHT22;8266;52.150;4.768;2022-10-16T05:38:38;16.30;99.90
16315;DHT22;8266;52.150;4.768;2022-10-16T05:41:07;16.20;99.90
16315;DHT22;8266;52.150;4.768;2022-10-16T05:43:34;16.20;99.90
16315;DHT22;8266;52.150;4.768;2022-10-16T05:46:04;16.20;99.90
16315;DHT22;8266;52.150;4.768;2022-10-16T05:48:31;16.20;99.90
16315;DHT22;8266;52.150;4.768;2022-10-16T05:51:00;16.10;99.90
16315;DHT22;8266;52.150;4.768;2022-10-16T05:53:27;16.10;99.90
16315;DHT22;8266;52.150;4.768;2022-10-16T05:55:55;16.10;99.90
16315;DHT22;8266;52.150;4.768;2022-10-16T05:58:28;16.10;99.90
16315;DHT22;8266;52.150;4.768;2022-10-16T06:00:56;16.10;99.90
16315;DHT22;8266;52.150;4.768;2022-10-16T06:03:23;16.00;99.90
16315;DHT22;8266;52.150;4.768;2022-10-16T06:05:50;16.00;99.90
16315;DHT22;8266;52.150;4.768;2022-10-16T06:08:18;16.00;99.90
16315;DHT22;8266;52.150;4.768;2022-10-16T06:10:46;16.00;99.90
16315;DHT22;8266;52.150;4.768;2022-10-16T06:13:13;16.00;99.90
16315;DHT22;8266;52.150;4.768;2022-10-16T06:15:42;16.00;99.90
16315;DHT22;8266;52.150;4.768;2022-10-16T06:18:09;16.00;99.90
16315;DHT22;8266;52.150;4.768;2022-10-16T06:20:37;16.00;99.90
16315;DHT22;8266;52.150;4.768;2022-10-16T06:23:04;15.90;99.90
16315;DHT22;8266;52.150;4.768;2022-10-16T06:25:31;16.00;99.90
16315;DHT22;8266;52.150;4.768;2022-10-16T06:27:58;15.90;99.90
16315;DHT22;8266;52.150;4.768;2022-10-16T06:30:25;15.90;99.90
16315;DHT22;8266;52.150;4.768;2022-10-16T06:32:53;15.90;99.90
16315;DHT22;8266;52.150;4.768;2022-10-16T06:35:20;15.90;99.90
16315;DHT22;8266;52.150;4.768;2022-10-16T06:37:47;15.90;99.90
16315;DHT22;8266;52.150;4.768;2022-10-16T06:40:14;15.90;99.90
16315;DHT22;8266;52.150;4.768;2022-10-16T06:42:41;15.90;99.90
16315;DHT22;8266;52.150;4.768;2022-10-16T06:45:09;16.00;99.90
16315;DHT22;8266;52.150;4.768;2022-10-16T06:47:36;15.90;99.90
16315;DHT22;8266;52.150;4.768;2022-10-16T06:50:07;15.90;99.90
16315;DHT22;8266;52.150;4.768;2022-10-16T06:52:47;15.90;99.90
16315;DHT22;8266;52.150;4.768;2022-10-16T06:55:14;16.00;99.90
16315;DHT22;8266;52.150;4.768;2022-10-16T06:57:42;16.00;99.90
16315;DHT22;8266;52.150;4.768;2022-10-16T07:00:10;16.00;99.90
16315;DHT22;8266;52.150;4.768;2022-10-16T07:02:37;16.00;99.90
16315;DHT22;8266;52.150;4.768;2022-10-16T07:05:06;16.00;99.90
16315;DHT22;8266;52.150;4.768;2022-10-16T07:07:36;16.00;99.90
16315;DHT22;8266;52.150;4.768;2022-10-16T07:10:03;16.10;99.90
16315;DHT22;8266;52.150;4.768;2022-10-16T07:12:30;16.10;99.90
16315;DHT22;8266;52.150;4.768;2022-10-16T07:14:57;16.10;99.90
16315;DHT22;8266;52.150;4.768;2022-10-16T07:17:24;16.10;99.90
16315;DHT22;8266;52.150;4.768;2022-10-16T07:19:51;16.10;99.90
16315;DHT22;8266;52.150;4.768;2022-10-16T07:22:20;16.20;99.90
16315;DHT22;8266;52.150;4.768;2022-10-16T07:24:47;16.20;99.90
16315;DHT22;8266;52.150;4.768;2022-10-16T07:27:14;16.20;99.90
16315;DHT22;8266;52.150;4.768;2022-10-16T07:29:42;16.20;99.90
16315;DHT22;8266;52.150;4.768;2022-10-16T07:32:09;16.20;99.90
16315;DHT22;8266;52.150;4.768;2022-10-16T07:34:36;16.20;99.90
16315;DHT22;8266;52.150;4.768;2022-10-16T07:37:03;16.30;99.90
16315;DHT22;8266;52.150;4.768;2022-10-16T07:39:31;16.20;99.90
16315;DHT22;8266;52.150;4.768;2022-10-16T07:41:58;16.30;99.90
16315;DHT22;8266;52.150;4.768;2022-10-16T07:44:25;16.30;99.90
16315;DHT22;8266;52.150;4.768;2022-10-16T07:46:58;16.30;99.90
16315;DHT22;8266;52.150;4.768;2022-10-16T07:49:25;16.30;99.90
16315;DHT22;8266;52.150;4.768;2022-10-16T07:51:52;16.40;99.90
16315;DHT22;8266;52.150;4.768;2022-10-16T07:54:21;16.50;99.90
16315;DHT22;8266;52.150;4.768;2022-10-16T07:56:50;16.70;99.90
16315;DHT22;8266;52.150;4.768;2022-10-16T07:59:19;16.90;99.90
16315;DHT22;8266;52.150;4.768;2022-10-16T08:01:48;17.30;99.90
16315;DHT22;8266;52.150;4.768;2022-10-16T08:04:16;17.60;99.90
16315;DHT22;8266;52.150;4.768;2022-10-16T08:06:44;18.10;99.90
16315;DHT22;8266;52.150;4.768;2022-10-16T08:09:11;18.40;99.90
16315;DHT22;8266;52.150;4.768;2022-10-16T08:11:38;18.70;99.90
16315;DHT22;8266;52.150;4.768;2022-10-16T08:14:07;19.10;99.90
16315;DHT22;8266;52.150;4.768;2022-10-16T08:16:36;19.50;99.90
16315;DHT22;8266;52.150;4.768;2022-10-16T08:19:03;19.80;99.90
16315;DHT22;8266;52.150;4.768;2022-10-16T08:21:31;20.20;99.90
16315;DHT22;8266;52.150;4.768;2022-10-16T08:23:58;20.50;99.90
16315;DHT22;8266;52.150;4.768;2022-10-16T08:26:26;20.80;99.90
16315;DHT22;8266;52.150;4.768;2022-10-16T08:28:53;21.00;99.90
16315;DHT22;8266;52.150;4.768;2022-10-16T08:31:22;21.30;99.90
16315;DHT22;8266;52.150;4.768;2022-10-16T08:33:50;21.50;99.90
16315;DHT22;8266;52.150;4.768;2022-10-16T08:36:17;21.70;99.90
16315;DHT22;8266;52.150;4.768;2022-10-16T08:38:47;21.90;99.90
16315;DHT22;8266;52.150;4.768;2022-10-16T08:41:32;22.10;99.90
16315;DHT22;8266;52.150;4.768;2022-10-16T08:44:31;22.20;99.90
16315;DHT22;8266;52.150;4.768;2022-10-16T08:47:11;22.40;99.90
16315;DHT22;8266;52.150;4.768;2022-10-16T08:49:41;22.60;99.90
16315;DHT22;8266;52.150;4.768;2022-10-16T08:52:12;22.60;99.90
16315;DHT22;8266;52.150;4.768;2022-10-16T08:54:43;22.60;99.90
16315;DHT22;8266;52.150;4.768;2022-10-16T08:57:14;22.60;99.90
16315;DHT22;8266;52.150;4.768;2022-10-16T08:59:42;22.70;99.90
16315;DHT22;8266;52.150;4.768;2022-10-16T09:02:24;22.70;99.90
16315;DHT22;8266;52.150;4.768;2022-10-16T09:05:02;22.80;99.90
16315;DHT22;8266;52.150;4.768;2022-10-16T09:07:39;22.90;99.90
16315;DHT22;8266;52.150;4.768;2022-10-16T09:10:19;23.00;99.90
16315;DHT22;8266;52.150;4.768;2022-10-16T09:12:55;23.10;99.90
16315;DHT22;8266;52.150;4.768;2022-10-16T09:15:30;23.10;99.90
16315;DHT22;8266;52.150;4.768;2022-10-16T09:18:04;23.20;99.90
16315;DHT22;8266;52.150;4.768;2022-10-16T09:20:41;23.30;99.90
16315;DHT22;8266;52.150;4.768;2022-10-16T09:23:15;23.40;99.90
16315;DHT22;8266;52.150;4.768;2022-10-16T09:25:45;23.40;99.90
16315;DHT22;8266;52.150;4.768;2022-10-16T09:28:13;23.50;99.90
16315;DHT22;8266;52.150;4.768;2022-10-16T09:30:40;23.50;99.90
16315;DHT22;8266;52.150;4.768;2022-10-16T09:33:10;23.60;99.90
16315;DHT22;8266;52.150;4.768;2022-10-16T09:35:39;23.70;99.90
16315;DHT22;8266;52.150;4.768;2022-10-16T09:38:07;23.80;99.90
16315;DHT22;8266;52.150;4.768;2022-10-16T09:40:37;23.80;99.90
16315;DHT22;8266;52.150;4.768;2022-10-16T09:43:18;23.90;99.90
16315;DHT22;8266;52.150;4.768;2022-10-16T09:45:54;24.00;99.90
16315;DHT22;8266;52.150;4.768;2022-10-16T09:48:25;24.20;99.90
16315;DHT22;8266;52.150;4.768;2022-10-16T09:50:58;24.30;99.90
16315;DHT22;8266;52.150;4.768;2022-10-16T09:53:37;24.30;99.90
16315;DHT22;8266;52.150;4.768;2022-10-16T09:56:05;24.40;99.90
16315;DHT22;8266;52.150;4.768;2022-10-16T09:58:33;24.40;99.90
16315;DHT22;8266;52.150;4.768;2022-10-16T10:01:02;24.40;99.90
16315;DHT22;8266;52.150;4.768;2022-10-16T10:03:40;24.40;99.90
16315;DHT22;8266;52.150;4.768;2022-10-16T10:06:17;24.40;99.90
16315;DHT22;8266;52.150;4.768;2022-10-16T10:08:55;24.40;99.90
16315;DHT22;8266;52.150;4.768;2022-10-16T10:11:39;24.40;99.90
16315;DHT22;8266;52.150;4.768;2022-10-16T10:14:13;24.40;99.90
16315;DHT22;8266;52.150;4.768;2022-10-16T10:16:42;24.40;99.90
16315;DHT22;8266;52.150;4.768;2022-10-16T10:19:14;24.40;99.90
16315;DHT22;8266;52.150;4.768;2022-10-16T10:21:41;24.40;99.90
16315;DHT22;8266;52.150;4.768;2022-10-16T10:24:11;24.40;99.90
16315;DHT22;8266;52.150;4.768;2022-10-16T10:26:42;24.40;99.90
16315;DHT22;8266;52.150;4.768;2022-10-16T10:29:20;24.20;99.90
16315;DHT22;8266;52.150;4.768;2022-10-16T10:31:57;24.20;99.90
16315;DHT22;8266;52.150;4.768;2022-10-16T10:34:42;24.20;99.90
16315;DHT22;8266;52.150;4.768;2022-10-16T10:37:46;24.20;99.90
16315;DHT22;8266;52.150;4.768;2022-10-16T10:40:22;24.10;99.90
16315;DHT22;8266;52.150;4.768;2022-10-16T10:42:55;24.10;99.90
16315;DHT22;8266;52.150;4.768;2022-10-16T10:45:27;24.00;99.90
16315;DHT22;8266;52.150;4.768;2022-10-16T10:48:09;23.90;99.90
16315;DHT22;8266;52.150;4.768;2022-10-16T10:50:41;23.70;99.90
16315;DHT22;8266;52.150;4.768;2022-10-16T10:53:18;23.50;99.90
16315;DHT22;8266;52.150;4.768;2022-10-16T10:55:56;23.40;99.90
16315;DHT22;8266;52.150;4.768;2022-10-16T10:58:55;23.30;99.90
16315;DHT22;8266;52.150;4.768;2022-10-16T11:01:30;23.20;99.90
16315;DHT22;8266;52.150;4.768;2022-10-16T11:04:27;23.20;99.90
16315;DHT22;8266;52.150;4.768;2022-10-16T11:07:04;23.20;99.90
16315;DHT22;8266;52.150;4.768;2022-10-16T11:09:34;23.20;99.90
16315;DHT22;8266;52.150;4.768;2022-10-16T11:12:06;23.20;99.90
16315;DHT22;8266;52.150;4.768;2022-10-16T11:14:36;23.30;99.90
16315;DHT22;8266;52.150;4.768;2022-10-16T11:17:13;23.30;99.90
16315;DHT22;8266;52.150;4.768;2022-10-16T11:19:44;23.20;99.90
16315;DHT22;8266;52.150;4.768;2022-10-16T11:22:18;23.20;99.90
16315;DHT22;8266;52.150;4.768;2022-10-16T11:24:49;23.10;99.90
16315;DHT22;8266;52.150;4.768;2022-10-16T11:27:36;23.10;99.90
16315;DHT22;8266;52.150;4.768;2022-10-16T11:30:11;23.10;99.90
16315;DHT22;8266;52.150;4.768;2022-10-16T11:32:52;23.10;99.90
16315;DHT22;8266;52.150;4.768;2022-10-16T11:35:25;23.10;99.90
16315;DHT22;8266;52.150;4.768;2022-10-16T11:38:02;23.10;99.90
16315;DHT22;8266;52.150;4.768;2022-10-16T11:40:34;23.20;99.90
16315;DHT22;8266;52.150;4.768;2022-10-16T11:43:10;23.20;99.90
16315;DHT22;8266;52.150;4.768;2022-10-16T11:45:43;23.30;99.90
16315;DHT22;8266;52.150;4.768;2022-10-16T11:48:20;23.30;99.90
16315;DHT22;8266;52.150;4.768;2022-10-16T11:50:58;23.30;99.90
16315;DHT22;8266;52.150;4.768;2022-10-16T11:53:48;23.30;99.90
16315;DHT22;8266;52.150;4.768;2022-10-16T11:56:22;23.30;99.90
16315;DHT22;8266;52.150;4.768;2022-10-16T11:58:58;23.30;99.90
16315;DHT22;8266;52.150;4.768;2022-10-16T12:01:32;23.30;99.90
16315;DHT22;8266;52.150;4.768;2022-10-16T12:04:09;23.40;99.90
16315;DHT22;8266;52.150;4.768;2022-10-16T12:06:46;23.30;99.90
16315;DHT22;8266;52.150;4.768;2022-10-16T12:09:25;23.30;99.90
16315;DHT22;8266;52.150;4.768;2022-10-16T12:11:56;23.30;99.90
16315;DHT22;8266;52.150;4.768;2022-10-16T12:14:35;23.30;99.90
16315;DHT22;8266;52.150;4.768;2022-10-16T12:17:22;23.30;99.90
16315;DHT22;8266;52.150;4.768;2022-10-16T12:19:58;23.30;99.90
16315;DHT22;8266;52.150;4.768;2022-10-16T12:22:28;23.40;99.90
16315;DHT22;8266;52.150;4.768;2022-10-16T12:24:57;23.40;99.90
16315;DHT22;8266;52.150;4.768;2022-10-16T12:27:27;23.40;99.90
16315;DHT22;8266;52.150;4.768;2022-10-16T12:30:00;23.50;99.90
16315;DHT22;8266;52.150;4.768;2022-10-16T12:32:31;23.50;99.90
16315;DHT22;8266;52.150;4.768;2022-10-16T12:34:59;23.50;99.90
16315;DHT22;8266;52.150;4.768;2022-10-16T12:37:31;23.60;99.90
16315;DHT22;8266;52.150;4.768;2022-10-16T12:40:11;23.60;99.90
16315;DHT22;8266;52.150;4.768;2022-10-16T12:42:39;23.60;99.90
16315;DHT22;8266;52.150;4.768;2022-10-16T12:45:26;23.60;99.90
16315;DHT22;8266;52.150;4.768;2022-10-16T12:47:54;23.60;99.90
16315;DHT22;8266;52.150;4.768;2022-10-16T12:50:30;23.50;99.90
16315;DHT22;8266;52.150;4.768;2022-10-16T12:52:58;23.50;99.90
16315;DHT22;8266;52.150;4.768;2022-10-16T12:55:34;23.40;99.90
16315;DHT22;8266;52.150;4.768;2022-10-16T12:58:17;23.30;99.90
16315;DHT22;8266;52.150;4.768;2022-10-16T13:00:50;23.30;99.90
16315;DHT22;8266;52.150;4.768;2022-10-16T13:03:49;23.30;99.90
16315;DHT22;8266;52.150;4.768;2022-10-16T13:06:29;23.20;99.90
16315;DHT22;8266;52.150;4.768;2022-10-16T13:09:21;23.20;99.90
16315;DHT22;8266;52.150;4.768;2022-10-16T13:12:03;23.20;99.90
16315;DHT22;8266;52.150;4.768;2022-10-16T13:17:37;23.10;99.90
16315;DHT22;8266;52.150;4.768;2022-10-16T13:20:15;23.10;99.90
16315;DHT22;8266;52.150;4.768;2022-10-16T13:22:50;23.00;99.90
16315;DHT22;8266;52.150;4.768;2022-10-16T13:25:24;23.00;99.90
16315;DHT22;8266;52.150;4.768;2022-10-16T13:27:56;22.90;99.90
16315;DHT22;8266;52.150;4.768;2022-10-16T13:30:25;22.90;99.90
16315;DHT22;8266;52.150;4.768;2022-10-16T13:32:59;22.90;99.90
16315;DHT22;8266;52.150;4.768;2022-10-16T13:35:28;22.80;99.90
16315;DHT22;8266;52.150;4.768;2022-10-16T13:38:11;22.80;99.90
16315;DHT22;8266;52.150;4.768;2022-10-16T13:40:49;22.70;99.90
16315;DHT22;8266;52.150;4.768;2022-10-16T13:43:18;22.70;99.90
16315;DHT22;8266;52.150;4.768;2022-10-16T13:45:56;22.70;99.90
16315;DHT22;8266;52.150;4.768;2022-10-16T13:48:23;22.70;99.90
16315;DHT22;8266;52.150;4.768;2022-10-16T13:51:02;22.70;99.90
16315;DHT22;8266;52.150;4.768;2022-10-16T13:53:31;22.60;99.90
16315;DHT22;8266;52.150;4.768;2022-10-16T13:55:58;22.60;99.90
16315;DHT22;8266;52.150;4.768;2022-10-16T13:58:28;22.60;99.90
16315;DHT22;8266;52.150;4.768;2022-10-16T14:00:57;22.70;99.90
16315;DHT22;8266;52.150;4.768;2022-10-16T14:03:25;22.70;99.90
16315;DHT22;8266;52.150;4.768;2022-10-16T14:05:54;22.70;99.90
16315;DHT22;8266;52.150;4.768;2022-10-16T14:08:23;22.70;99.90
16315;DHT22;8266;52.150;4.768;2022-10-16T14:10:54;22.70;99.90
16315;DHT22;8266;52.150;4.768;2022-10-16T14:13:29;22.70;99.90
16315;DHT22;8266;52.150;4.768;2022-10-16T14:16:01;22.70;99.90
16315;DHT22;8266;52.150;4.768;2022-10-16T14:18:29;22.70;99.90
16315;DHT22;8266;52.150;4.768;2022-10-16T14:21:03;22.70;99.90
16315;DHT22;8266;52.150;4.768;2022-10-16T14:23:32;22.60;99.90
16315;DHT22;8266;52.150;4.768;2022-10-16T14:26:12;22.60;99.90
16315;DHT22;8266;52.150;4.768;2022-10-16T14:28:42;22.60;99.90
16315;DHT22;8266;52.150;4.768;2022-10-16T14:31:26;22.60;99.90
16315;DHT22;8266;52.150;4.768;2022-10-16T14:33:54;22.60;99.90
16315;DHT22;8266;52.150;4.768;2022-10-16T14:36:21;22.60;99.90
16315;DHT22;8266;52.150;4.768;2022-10-16T14:38:59;22.60;99.90
16315;DHT22;8266;52.150;4.768;2022-10-16T14:41:28;22.50;99.90
16315;DHT22;8266;52.150;4.768;2022-10-16T14:43:58;22.50;99.90
16315;DHT22;8266;52.150;4.768;2022-10-16T14:46:33;22.50;99.90
16315;DHT22;8266;52.150;4.768;2022-10-16T14:49:04;22.50;99.90
16315;DHT22;8266;52.150;4.768;2022-10-16T14:51:41;22.40;99.90
16315;DHT22;8266;52.150;4.768;2022-10-16T14:54:12;22.40;99.90
16315;DHT22;8266;52.150;4.768;2022-10-16T14:56:46;22.40;99.90
16315;DHT22;8266;52.150;4.768;2022-10-16T14:59:17;22.30;99.90
16315;DHT22;8266;52.150;4.768;2022-10-16T15:01:46;22.30;99.90
16315;DHT22;8266;52.150;4.768;2022-10-16T15:04:13;22.30;99.90
16315;DHT22;8266;52.150;4.768;2022-10-16T15:06:41;22.30;99.90
16315;DHT22;8266;52.150;4.768;2022-10-16T15:09:10;22.30;99.90
16315;DHT22;8266;52.150;4.768;2022-10-16T15:11:39;22.30;99.90
16315;DHT22;8266;52.150;4.768;2022-10-16T15:14:10;22.30;99.90
16315;DHT22;8266;52.150;4.768;2022-10-16T15:16:39;22.30;99.90
16315;DHT22;8266;52.150;4.768;2022-10-16T15:19:06;22.30;99.90
16315;DHT22;8266;52.150;4.768;2022-10-16T15:21:33;22.30;99.90
16315;DHT22;8266;52.150;4.768;2022-10-16T15:24:01;22.30;99.90
16315;DHT22;8266;52.150;4.768;2022-10-16T15:26:28;22.20;99.90
16315;DHT22;8266;52.150;4.768;2022-10-16T15:28:56;22.10;99.90
16315;DHT22;8266;52.150;4.768;2022-10-16T15:31:23;22.00;99.90
16315;DHT22;8266;52.150;4.768;2022-10-16T15:33:52;21.90;99.90
16315;DHT22;8266;52.150;4.768;2022-10-16T15:36:27;21.80;99.90
16315;DHT22;8266;52.150;4.768;2022-10-16T15:38:55;21.80;99.90
16315;DHT22;8266;52.150;4.768;2022-10-16T15:41:22;21.70;99.90
16315;DHT22;8266;52.150;4.768;2022-10-16T15:43:50;21.60;99.90
16315;DHT22;8266;52.150;4.768;2022-10-16T15:46:18;21.60;99.90
16315;DHT22;8266;52.150;4.768;2022-10-16T15:48:46;21.40;99.90
16315;DHT22;8266;52.150;4.768;2022-10-16T15:51:14;21.40;99.90
16315;DHT22;8266;52.150;4.768;2022-10-16T15:53:41;21.40;99.90
16315;DHT22;8266;52.150;4.768;2022-10-16T15:56:10;21.30;99.90
16315;DHT22;8266;52.150;4.768;2022-10-16T15:58:37;21.30;99.90
16315;DHT22;8266;52.150;4.768;2022-10-16T16:01:05;21.20;99.90
16315;DHT22;8266;52.150;4.768;2022-10-16T16:03:33;21.10;99.90
16315;DHT22;8266;52.150;4.768;2022-10-16T16:06:04;21.10;99.90
16315;DHT22;8266;52.150;4.768;2022-10-16T16:08:34;21.00;99.90
16315;DHT22;8266;52.150;4.768;2022-10-16T16:11:06;21.00;99.90
16315;DHT22;8266;52.150;4.768;2022-10-16T16:13:36;21.00;99.90